Time;durP1;ratioP1;P1;durP2;ratioP2;P2;SDS_P1;SDS_P2;PMS_P1;PMS_P2;Temp;Humidity;BMP_temperature;BMP_pressure;BME280_temperature;BME280_humidity;BME280_pressure;Samples;Min_cycle;Max_cycle;Signal;HPM_P1;HPM_P2
2023/04/09 00:01:55;;;;;;;;;;;9.10;99.90;;;;;;5038468;28;20001;-39
2023/04/09 00:04:22;;;;;;;;;;;9.10;99.90;;;;;;5048226;28;19972;-39
2023/04/09 00:06:50;;;;;;;;;;;9.00;99.90;;;;;;5040019;28;20329;-39
2023/04/09 00:09:17;;;;;;;;;;;9.00;99.90;;;;;;5050245;28;20171;-38
2023/04/09 00:11:43;;;;;;;;;;;9.00;99.90;;;;;;5042945;28;19996;-38
2023/04/09 00:14:10;;;;;;;;;;;9.00;99.90;;;;;;5052014;28;20347;-38
2023/04/09 00:16:36;;;;;;;;;;;9.00;99.90;;;;;;5047258;28;19993;-38
2023/04/09 00:19:03;;;;;;;;;;;9.00;99.90;;;;;;5048978;28;19921;-38
2023/04/09 00:21:30;;;;;;;;;;;9.00;99.90;;;;;;5064700;28;20048;-39
2023/04/09 00:23:58;;;;;;;;;;;8.90;99.90;;;;;;5045300;28;19921;-38
2023/04/09 00:26:24;;;;;;;;;;;8.90;99.90;;;;;;5035435;28;20583;-39
2023/04/09 00:28:51;;;;;;;;;;;8.90;99.90;;;;;;5056112;28;19935;-39
2023/04/09 00:31:18;;;;;;;;;;;8.90;99.90;;;;;;5052098;28;20467;-39
2023/04/09 00:33:44;;;;;;;;;;;8.90;99.90;;;;;;5051901;28;19935;-39
2023/04/09 00:36:11;;;;;;;;;;;8.80;99.90;;;;;;5043961;28;19933;-39
2023/04/09 00:38:37;;;;;;;;;;;8.80;99.90;;;;;;5051612;28;19983;-40
2023/04/09 00:41:06;;;;;;;;;;;8.80;99.90;;;;;;5052066;28;20450;-39
2023/04/09 00:43:32;;;;;;;;;;;8.80;99.90;;;;;;5066096;28;20385;-39
2023/04/09 00:45:59;;;;;;;;;;;8.80;99.90;;;;;;5039991;28;19943;-39
2023/04/09 00:48:26;;;;;;;;;;;8.80;99.90;;;;;;5059495;28;19939;-39
2023/04/09 00:50:52;;;;;;;;;;;8.80;99.90;;;;;;5065888;28;20029;-39
2023/04/09 00:53:19;;;;;;;;;;;8.80;99.90;;;;;;5051273;28;20301;-40
2023/04/09 00:55:45;;;;;;;;;;;8.80;99.90;;;;;;5032739;28;20465;-39
2023/04/09 00:58:13;;;;;;;;;;;8.80;99.90;;;;;;5045937;28;20007;-39
2023/04/09 01:00:40;;;;;;;;;;;8.80;99.90;;;;;;5051270;28;20011;-38
2023/04/09 01:03:07;;;;;;;;;;;8.80;99.90;;;;;;5034111;28;19950;-39
2023/04/09 01:05:34;;;;;;;;;;;8.80;99.90;;;;;;5048158;28;20036;-40
2023/04/09 01:08:01;;;;;;;;;;;8.80;99.90;;;;;;5042940;28;19953;-40
2023/04/09 01:10:30;;;;;;;;;;;8.80;99.90;;;;;;5046833;28;19939;-40
2023/04/09 01:13:00;;;;;;;;;;;8.80;99.90;;;;;;5048212;28;19931;-39
2023/04/09 01:15:29;;;;;;;;;;;8.70;99.90;;;;;;5046137;28;19935;-39
2023/04/09 01:17:57;;;;;;;;;;;8.70;99.90;;;;;;5035885;28;20010;-38
2023/04/09 01:20:27;;;;;;;;;;;8.70;99.90;;;;;;5064608;28;19966;-38
2023/04/09 01:22:56;;;;;;;;;;;8.70;99.90;;;;;;5050052;28;19947;-39
2023/04/09 01:25:27;;;;;;;;;;;8.60;99.90;;;;;;5043641;28;20350;-40
2023/04/09 01:27:55;;;;;;;;;;;8.60;99.90;;;;;;5039475;28;19998;-39
2023/04/09 01:30:23;;;;;;;;;;;8.60;99.90;;;;;;5057049;28;20370;-39
2023/04/09 01:32:50;;;;;;;;;;;8.60;99.90;;;;;;5051902;28;20360;-42
2023/04/09 01:35:16;;;;;;;;;;;8.60;99.90;;;;;;5057320;28;20396;-39
2023/04/09 01:37:43;;;;;;;;;;;8.50;99.90;;;;;;5045594;28;19985;-39
2023/04/09 01:40:10;;;;;;;;;;;8.50;99.90;;;;;;5057234;28;19920;-38
2023/04/09 01:42:36;;;;;;;;;;;8.50;99.90;;;;;;5048825;28;20005;-38
2023/04/09 01:45:04;;;;;;;;;;;8.50;99.90;;;;;;5050291;28;19978;-38
2023/04/09 01:47:32;;;;;;;;;;;8.50;99.90;;;;;;5055448;28;20347;-38
2023/04/09 01:49:59;;;;;;;;;;;8.50;99.90;;;;;;5053545;28;20303;-40
2023/04/09 01:52:25;;;;;;;;;;;8.60;99.90;;;;;;5050076;28;20050;-38
2023/04/09 01:54:52;;;;;;;;;;;8.60;99.90;;;;;;5050995;28;19984;-39
2023/04/09 01:57:19;;;;;;;;;;;8.60;99.90;;;;;;5046510;28;20012;-38
2023/04/09 01:59:45;;;;;;;;;;;8.60;99.90;;;;;;5052995;28;19967;-39
2023/04/09 02:02:13;;;;;;;;;;;8.60;99.90;;;;;;5048632;28;19983;-38
2023/04/09 02:04:43;;;;;;;;;;;8.50;99.90;;;;;;5053256;28;19929;-39
2023/04/09 02:07:10;;;;;;;;;;;8.50;99.90;;;;;;5054923;28;19988;-39
2023/04/09 02:09:37;;;;;;;;;;;8.50;99.90;;;;;;5062663;28;20022;-38
2023/04/09 02:12:05;;;;;;;;;;;8.50;99.90;;;;;;5062287;28;19938;-38
2023/04/09 02:14:32;;;;;;;;;;;8.50;99.90;;;;;;5055011;28;20369;-39
2023/04/09 02:16:59;;;;;;;;;;;8.50;99.90;;;;;;5052502;28;20041;-38
2023/04/09 02:19:25;;;;;;;;;;;8.50;99.90;;;;;;5065422;28;20334;-39
2023/04/09 02:21:53;;;;;;;;;;;8.50;99.90;;;;;;5052584;28;20375;-38
2023/04/09 02:24:20;;;;;;;;;;;8.50;99.90;;;;;;5052776;28;19935;-38
2023/04/09 02:26:47;;;;;;;;;;;8.50;99.90;;;;;;5054118;28;19987;-38
2023/04/09 02:29:13;;;;;;;;;;;8.50;99.90;;;;;;5053978;28;19980;-39
2023/04/09 02:31:40;;;;;;;;;;;8.50;99.90;;;;;;5055670;28;19959;-38
2023/04/09 02:34:06;;;;;;;;;;;8.50;99.90;;;;;;5053734;28;20360;-38
2023/04/09 02:36:33;;;;;;;;;;;8.50;99.90;;;;;;5053787;28;20031;-39
2023/04/09 02:39:01;;;;;;;;;;;8.50;99.90;;;;;;5053367;28;20403;-39
2023/04/09 02:41:28;;;;;;;;;;;8.40;99.90;;;;;;5069714;28;19937;-39
2023/04/09 02:43:54;;;;;;;;;;;8.50;99.90;;;;;;5054209;28;19988;-39
2023/04/09 02:46:21;;;;;;;;;;;8.50;99.90;;;;;;5052799;28;19937;-39
2023/04/09 02:48:47;;;;;;;;;;;8.50;99.90;;;;;;5054237;28;20365;-38
2023/04/09 02:51:14;;;;;;;;;;;8.50;99.90;;;;;;5053966;28;19968;-40
2023/04/09 02:53:41;;;;;;;;;;;8.40;99.90;;;;;;5060499;28;19924;-39
2023/04/09 02:56:09;;;;;;;;;;;8.40;99.90;;;;;;5047082;28;19935;-38
2023/04/09 02:58:35;;;;;;;;;;;8.40;99.90;;;;;;5050059;28;20021;-38
2023/04/09 03:01:02;;;;;;;;;;;8.40;99.90;;;;;;5049382;28;19976;-39
2023/04/09 03:03:29;;;;;;;;;;;8.40;99.90;;;;;;5053240;28;20422;-39
2023/04/09 03:05:56;;;;;;;;;;;8.50;99.90;;;;;;5052900;28;20310;-39
2023/04/09 03:08:22;;;;;;;;;;;8.40;99.90;;;;;;5047661;28;19974;-39
2023/04/09 03:10:49;;;;;;;;;;;8.40;99.90;;;;;;5051550;28;19982;-39
2023/04/09 03:13:17;;;;;;;;;;;8.40;99.90;;;;;;5051640;28;19933;-40
2023/04/09 03:15:44;;;;;;;;;;;8.40;99.90;;;;;;5053070;28;19935;-39
2023/04/09 03:18:10;;;;;;;;;;;8.30;99.90;;;;;;5051243;28;19995;-40
2023/04/09 03:20:37;;;;;;;;;;;8.30;99.90;;;;;;5048892;28;20011;-37
2023/04/09 03:23:04;;;;;;;;;;;8.30;99.90;;;;;;5043889;28;19990;-38
2023/04/09 03:25:31;;;;;;;;;;;8.30;99.90;;;;;;5050682;28;19935;-39
2023/04/09 03:27:57;;;;;;;;;;;8.30;99.90;;;;;;5052377;28;19935;-39
2023/04/09 03:30:25;;;;;;;;;;;8.30;99.90;;;;;;5060610;28;20029;-40
2023/04/09 03:32:52;;;;;;;;;;;8.30;99.90;;;;;;5052925;28;20010;-38
2023/04/09 03:35:18;;;;;;;;;;;8.30;99.90;;;;;;5048168;28;19960;-38
2023/04/09 03:37:45;;;;;;;;;;;8.20;99.90;;;;;;5050943;28;20011;-42
2023/04/09 03:40:12;;;;;;;;;;;8.30;99.90;;;;;;5060352;28;20345;-40
2023/04/09 03:42:39;;;;;;;;;;;8.30;99.90;;;;;;5054377;28;19991;-39
2023/04/09 03:45:06;;;;;;;;;;;8.20;99.90;;;;;;5052618;28;19977;-39
2023/04/09 03:47:34;;;;;;;;;;;8.30;99.90;;;;;;5048131;28;19998;-38
2023/04/09 03:50:01;;;;;;;;;;;8.20;99.90;;;;;;5055523;28;21651;-39
2023/04/09 03:52:27;;;;;;;;;;;8.30;99.90;;;;;;5041730;28;19935;-40
2023/04/09 03:54:54;;;;;;;;;;;8.20;99.90;;;;;;5040739;28;20014;-39
2023/04/09 03:57:20;;;;;;;;;;;8.20;99.90;;;;;;5046284;28;19939;-39
2023/04/09 03:59:47;;;;;;;;;;;8.20;99.90;;;;;;5055050;28;19931;-39
2023/04/09 04:02:14;;;;;;;;;;;8.20;99.90;;;;;;5051800;28;19992;-39
2023/04/09 04:04:42;;;;;;;;;;;8.20;99.90;;;;;;5052391;28;19921;-39
2023/04/09 04:07:08;;;;;;;;;;;8.00;99.90;;;;;;5047767;28;19975;-39
2023/04/09 04:09:36;;;;;;;;;;;8.10;99.90;;;;;;5053780;28;19986;-39
2023/04/09 04:12:02;;;;;;;;;;;8.10;99.90;;;;;;5060751;28;19980;-39
2023/04/09 04:14:29;;;;;;;;;;;8.10;99.90;;;;;;5052512;28;19939;-39
2023/04/09 04:16:56;;;;;;;;;;;8.10;99.90;;;;;;5051275;28;20003;-39
2023/04/09 04:19:22;;;;;;;;;;;8.10;99.90;;;;;;5050758;28;20400;-39
2023/04/09 04:21:50;;;;;;;;;;;8.10;99.90;;;;;;5063612;28;20375;-40
2023/04/09 04:24:17;;;;;;;;;;;8.10;99.90;;;;;;5051928;28;19994;-39
2023/04/09 04:26:43;;;;;;;;;;;8.10;99.90;;;;;;5052304;28;19967;-39
2023/04/09 04:29:10;;;;;;;;;;;8.10;99.90;;;;;;5050182;28;20390;-38
2023/04/09 04:31:37;;;;;;;;;;;8.10;99.90;;;;;;5055040;28;20368;-38
2023/04/09 04:34:03;;;;;;;;;;;8.00;99.90;;;;;;5043308;28;20006;-39
2023/04/09 04:36:30;;;;;;;;;;;8.00;99.90;;;;;;5050539;28;19961;-39
2023/04/09 04:38:58;;;;;;;;;;;8.00;99.90;;;;;;5050102;28;19943;-39
2023/04/09 04:41:24;;;;;;;;;;;8.00;99.90;;;;;;5051604;28;19975;-40
2023/04/09 04:43:51;;;;;;;;;;;8.00;99.90;;;;;;5047911;28;20005;-40
2023/04/09 04:46:19;;;;;;;;;;;8.00;99.90;;;;;;5049446;28;19977;-40
2023/04/09 04:48:45;;;;;;;;;;;8.10;99.90;;;;;;5047156;28;20210;-40
2023/04/09 04:51:12;;;;;;;;;;;8.00;99.90;;;;;;5044464;28;20395;-39
2023/04/09 04:53:39;;;;;;;;;;;8.10;99.90;;;;;;5040969;28;19972;-40
2023/04/09 04:56:07;;;;;;;;;;;8.10;99.90;;;;;;5050197;28;20012;-39
2023/04/09 04:58:34;;;;;;;;;;;8.00;99.90;;;;;;5047059;28;19935;-40
2023/04/09 05:01:01;;;;;;;;;;;8.10;99.90;;;;;;5049889;28;19982;-39
2023/04/09 05:03:27;;;;;;;;;;;8.00;99.90;;;;;;5044704;28;20395;-39
2023/04/09 05:05:54;;;;;;;;;;;8.00;99.90;;;;;;5058087;28;20044;-38
2023/04/09 05:08:20;;;;;;;;;;;8.00;99.90;;;;;;5051115;28;20018;-41
2023/04/09 05:10:47;;;;;;;;;;;8.00;99.90;;;;;;5046241;28;19921;-40
2023/04/09 05:13:15;;;;;;;;;;;8.00;99.90;;;;;;5048417;28;20020;-40
2023/04/09 05:15:42;;;;;;;;;;;8.00;99.90;;;;;;5050502;28;19978;-39
2023/04/09 05:18:08;;;;;;;;;;;8.00;99.90;;;;;;5045208;28;20048;-40
2023/04/09 05:20:35;;;;;;;;;;;8.00;99.90;;;;;;5055748;28;20344;-40
2023/04/09 05:23:01;;;;;;;;;;;8.00;99.90;;;;;;5053838;28;19955;-40
2023/04/09 05:25:28;;;;;;;;;;;8.00;99.90;;;;;;5053851;28;19960;-39
2023/04/09 05:27:55;;;;;;;;;;;8.00;99.90;;;;;;5051399;28;20390;-39
2023/04/09 05:30:23;;;;;;;;;;;8.00;99.90;;;;;;5044912;28;19940;-40
2023/04/09 05:32:49;;;;;;;;;;;8.00;99.90;;;;;;5048978;28;19970;-40
2023/04/09 05:35:16;;;;;;;;;;;8.00;99.90;;;;;;5052707;28;19931;-38
2023/04/09 05:37:43;;;;;;;;;;;8.00;99.90;;;;;;5054669;28;20040;-38
2023/04/09 05:40:10;;;;;;;;;;;8.00;99.90;;;;;;5054702;28;20433;-40
2023/04/09 05:42:37;;;;;;;;;;;8.00;99.90;;;;;;5052326;28;19956;-39
2023/04/09 05:45:03;;;;;;;;;;;8.00;99.90;;;;;;5052132;28;20447;-39
2023/04/09 05:47:31;;;;;;;;;;;8.00;99.90;;;;;;5052704;28;19987;-39
2023/04/09 05:49:58;;;;;;;;;;;8.00;99.90;;;;;;5050909;28;19999;-38
2023/04/09 05:52:25;;;;;;;;;;;8.00;99.90;;;;;;5050740;28;19939;-39
2023/04/09 05:54:52;;;;;;;;;;;8.00;99.90;;;;;;5052075;28;19975;-39
2023/04/09 05:57:18;;;;;;;;;;;8.00;99.90;;;;;;5056980;28;19976;-40
2023/04/09 05:59:45;;;;;;;;;;;8.00;99.90;;;;;;5051979;28;19959;-39
2023/04/09 06:02:12;;;;;;;;;;;8.10;99.90;;;;;;5050304;28;19933;-39
2023/04/09 06:04:40;;;;;;;;;;;8.00;99.90;;;;;;5053022;28;20007;-40
2023/04/09 06:07:06;;;;;;;;;;;8.10;99.90;;;;;;5057596;28;19964;-38
2023/04/09 06:09:33;;;;;;;;;;;8.00;99.90;;;;;;5051866;28;19935;-39
2023/04/09 06:12:00;;;;;;;;;;;8.00;99.90;;;;;;5052989;28;19977;-40
2023/04/09 06:14:26;;;;;;;;;;;8.00;99.90;;;;;;5053921;28;19991;-39
2023/04/09 06:16:53;;;;;;;;;;;8.10;99.90;;;;;;5052720;28;20045;-40
2023/04/09 06:19:19;;;;;;;;;;;8.00;99.90;;;;;;5052511;28;19976;-39
2023/04/09 06:21:47;;;;;;;;;;;8.10;99.90;;;;;;5046241;28;20014;-39
2023/04/09 06:24:14;;;;;;;;;;;8.10;99.90;;;;;;5050944;28;19994;-40
2023/04/09 06:26:41;;;;;;;;;;;8.10;99.90;;;;;;5061486;28;20293;-39
2023/04/09 06:29:07;;;;;;;;;;;8.10;99.90;;;;;;5050477;28;19937;-39
2023/04/09 06:31:34;;;;;;;;;;;8.10;99.90;;;;;;5051187;28;19997;-39
2023/04/09 06:34:01;;;;;;;;;;;8.10;99.90;;;;;;5054178;28;19961;-39
2023/04/09 06:36:27;;;;;;;;;;;8.20;99.90;;;;;;5051095;28;20045;-39
2023/04/09 06:38:55;;;;;;;;;;;8.20;99.90;;;;;;5050208;28;20024;-39
2023/04/09 06:41:22;;;;;;;;;;;8.20;99.90;;;;;;5050361;28;20378;-39
2023/04/09 06:43:48;;;;;;;;;;;8.10;99.90;;;;;;5051497;28;19996;-38
2023/04/09 06:46:17;;;;;;;;;;;8.20;99.90;;;;;;5045645;28;19921;-38
2023/04/09 06:48:43;;;;;;;;;;;8.20;99.90;;;;;;5069588;28;20447;-39
2023/04/09 06:51:10;;;;;;;;;;;8.20;99.90;;;;;;5062758;28;19964;-39
2023/04/09 06:53:37;;;;;;;;;;;8.30;99.90;;;;;;5046856;28;19944;-39
2023/04/09 06:56:06;;;;;;;;;;;8.20;99.90;;;;;;5051579;28;20026;-39
2023/04/09 06:58:32;;;;;;;;;;;8.30;99.90;;;;;;5052200;28;20362;-40
2023/04/09 07:00:59;;;;;;;;;;;8.30;99.90;;;;;;5047928;28;19972;-39
2023/04/09 07:03:26;;;;;;;;;;;8.40;99.90;;;;;;5048408;28;19979;-41
2023/04/09 07:05:53;;;;;;;;;;;8.40;99.90;;;;;;5050878;28;19980;-40
2023/04/09 07:08:21;;;;;;;;;;;8.40;99.90;;;;;;5050014;28;20311;-39
2023/04/09 07:10:48;;;;;;;;;;;8.40;99.90;;;;;;5058824;28;19935;-40
2023/04/09 07:13:16;;;;;;;;;;;8.40;99.90;;;;;;5046886;28;19935;-39
2023/04/09 07:15:43;;;;;;;;;;;8.50;99.90;;;;;;5052933;28;19935;-40
2023/04/09 07:18:09;;;;;;;;;;;8.50;99.90;;;;;;5052873;28;19997;-40
2023/04/09 07:20:36;;;;;;;;;;;8.50;99.90;;;;;;5070199;28;19939;-39
2023/04/09 07:23:02;;;;;;;;;;;8.50;99.90;;;;;;5055978;28;19974;-41
2023/04/09 07:25:29;;;;;;;;;;;8.60;99.90;;;;;;5051663;28;19994;-39
2023/04/09 07:27:56;;;;;;;;;;;8.60;99.90;;;;;;5060471;28;20016;-39
2023/04/09 07:30:24;;;;;;;;;;;8.60;99.90;;;;;;5052873;28;19920;-39
2023/04/09 07:32:51;;;;;;;;;;;8.60;99.90;;;;;;5049436;28;19994;-39
2023/04/09 07:35:18;;;;;;;;;;;8.70;99.90;;;;;;5047047;28;19978;-39
2023/04/09 07:37:45;;;;;;;;;;;8.70;99.90;;;;;;5061820;28;19932;-41
2023/04/09 07:40:11;;;;;;;;;;;8.70;99.90;;;;;;5051480;28;19936;-39
2023/04/09 07:42:38;;;;;;;;;;;8.80;99.90;;;;;;5052391;28;19982;-39
2023/04/09 07:45:06;;;;;;;;;;;8.80;99.90;;;;;;5051734;28;20033;-39
2023/04/09 07:47:34;;;;;;;;;;;8.90;99.90;;;;;;5050102;28;19935;-39
2023/04/09 07:50:00;;;;;;;;;;;9.00;99.90;;;;;;5048910;28;20272;-39
2023/04/09 07:52:27;;;;;;;;;;;9.00;99.90;;;;;;5051277;28;19935;-39
2023/04/09 07:54:54;;;;;;;;;;;9.10;99.90;;;;;;5051559;28;19976;-39
2023/04/09 07:57:20;;;;;;;;;;;9.10;99.90;;;;;;5067637;28;19948;-38
2023/04/09 07:59:47;;;;;;;;;;;9.20;99.90;;;;;;5064998;28;20338;-38
2023/04/09 08:02:14;;;;;;;;;;;9.30;99.90;;;;;;5056264;28;19933;-39
2023/04/09 08:04:42;;;;;;;;;;;9.30;99.90;;;;;;5051793;28;19990;-39
2023/04/09 08:07:08;;;;;;;;;;;9.40;99.90;;;;;;5057461;28;19960;-39
2023/04/09 08:09:35;;;;;;;;;;;9.50;99.90;;;;;;5062467;28;19935;-39
2023/04/09 08:12:02;;;;;;;;;;;9.40;99.90;;;;;;5052349;28;19940;-39
2023/04/09 08:14:29;;;;;;;;;;;9.50;99.90;;;;;;5051898;28;20473;-39
2023/04/09 08:16:56;;;;;;;;;;;9.50;99.90;;;;;;5051559;28;19959;-39
2023/04/09 08:19:22;;;;;;;;;;;9.50;99.90;;;;;;5064804;28;19939;-39
2023/04/09 08:21:51;;;;;;;;;;;9.60;99.90;;;;;;5062123;28;20471;-38
2023/04/09 08:24:18;;;;;;;;;;;9.60;99.90;;;;;;5065684;28;19949;-38
2023/04/09 08:26:44;;;;;;;;;;;9.70;99.90;;;;;;5048039;28;20025;-39
2023/04/09 08:29:11;;;;;;;;;;;9.80;99.90;;;;;;5054431;28;20037;-40
2023/04/09 08:31:38;;;;;;;;;;;9.80;99.90;;;;;;5056245;28;20291;-38
2023/04/09 08:34:05;;;;;;;;;;;9.90;99.90;;;;;;5049769;28;20471;-39
2023/04/09 08:36:33;;;;;;;;;;;10.00;99.90;;;;;;5067976;28;20395;-38
2023/04/09 08:39:01;;;;;;;;;;;10.10;99.90;;;;;;5061041;28;19962;-38
2023/04/09 08:41:28;;;;;;;;;;;10.20;99.90;;;;;;5061464;28;19990;-39
2023/04/09 08:43:55;;;;;;;;;;;10.30;99.90;;;;;;5061692;28;19932;-38
2023/04/09 08:46:21;;;;;;;;;;;10.40;99.90;;;;;;5063138;28;19942;-39
2023/04/09 08:48:48;;;;;;;;;;;10.40;99.90;;;;;;5059775;28;19990;-39
2023/04/09 08:51:15;;;;;;;;;;;10.50;99.90;;;;;;5047998;28;19974;-39
2023/04/09 08:53:42;;;;;;;;;;;10.50;99.90;;;;;;5049804;28;19939;-39
2023/04/09 08:56:12;;;;;;;;;;;10.60;99.90;;;;;;5046921;28;20048;-40
2023/04/09 08:58:39;;;;;;;;;;;10.60;99.90;;;;;;5051305;28;19937;-39
2023/04/09 09:01:15;;;;;;;;;;;10.70;99.90;;;;;;5050454;28;19937;-38
2023/04/09 09:03:47;;;;;;;;;;;10.80;99.90;;;;;;5053043;28;19984;-39
2023/04/09 09:06:20;;;;;;;;;;;11.00;99.90;;;;;;5056212;28;19938;-39
2023/04/09 09:08:50;;;;;;;;;;;11.10;99.90;;;;;;5050709;28;20017;-40
2023/04/09 09:11:26;;;;;;;;;;;11.20;99.90;;;;;;5050039;28;19933;-39
2023/04/09 09:13:57;;;;;;;;;;;11.20;99.90;;;;;;5046837;28;19934;-39
2023/04/09 09:16:23;;;;;;;;;;;11.20;99.90;;;;;;5058110;28;19996;-38
2023/04/09 09:18:51;;;;;;;;;;;11.30;99.90;;;;;;5049659;28;19998;-39
2023/04/09 09:21:18;;;;;;;;;;;11.30;99.90;;;;;;5049846;28;19964;-39
2023/04/09 09:23:47;;;;;;;;;;;11.40;99.90;;;;;;5049021;28;20004;-38
2023/04/09 09:26:15;;;;;;;;;;;11.50;99.90;;;;;;5049821;28;19951;-39
2023/04/09 09:28:43;;;;;;;;;;;11.60;99.90;;;;;;5051732;28;19997;-38
2023/04/09 09:31:09;;;;;;;;;;;11.60;99.90;;;;;;5050689;28;19941;-39
2023/04/09 09:33:36;;;;;;;;;;;11.70;99.90;;;;;;5050758;28;20374;-39
2023/04/09 09:36:03;;;;;;;;;;;11.70;99.90;;;;;;5048133;28;20024;-38
2023/04/09 09:38:30;;;;;;;;;;;11.80;99.90;;;;;;5046641;28;20005;-38
2023/04/09 09:40:56;;;;;;;;;;;11.90;99.90;;;;;;5058597;28;19936;-38
2023/04/09 09:43:23;;;;;;;;;;;12.00;99.90;;;;;;5058263;28;19979;-38
2023/04/09 09:45:51;;;;;;;;;;;12.20;99.90;;;;;;5040374;28;20403;-40
2023/04/09 09:48:18;;;;;;;;;;;12.30;99.90;;;;;;5047877;28;19933;-38
2023/04/09 09:50:44;;;;;;;;;;;12.60;99.90;;;;;;5060440;28;20042;-37
2023/04/09 09:53:11;;;;;;;;;;;12.80;99.90;;;;;;5043741;28;19936;-39
2023/04/09 09:55:38;;;;;;;;;;;12.90;99.90;;;;;;5050952;28;19931;-38
2023/04/09 09:58:10;;;;;;;;;;;13.10;99.90;;;;;;5047944;28;19939;-39
2023/04/09 10:00:37;;;;;;;;;;;13.20;99.90;;;;;;5046835;28;19941;-40
2023/04/09 10:03:07;;;;;;;;;;;13.10;99.90;;;;;;5047104;28;20380;-38
2023/04/09 10:05:35;;;;;;;;;;;13.20;99.90;;;;;;5049570;28;20631;-39
2023/04/09 10:08:01;;;;;;;;;;;13.40;99.90;;;;;;5048379;28;19962;-39
2023/04/09 10:10:28;;;;;;;;;;;13.50;99.90;;;;;;5039662;28;19974;-38
2023/04/09 10:12:55;;;;;;;;;;;13.50;99.90;;;;;;5049032;28;20016;-39
2023/04/09 10:15:21;;;;;;;;;;;13.50;99.90;;;;;;5043357;28;19943;-38
2023/04/09 10:17:48;;;;;;;;;;;13.50;99.90;;;;;;5045879;28;20065;-38
2023/04/09 10:20:18;;;;;;;;;;;13.70;99.90;;;;;;5044493;28;19932;-40
2023/04/09 10:22:46;;;;;;;;;;;13.90;99.90;;;;;;5049589;28;20443;-39
2023/04/09 10:25:12;;;;;;;;;;;14.00;99.90;;;;;;5047570;28;20024;-38
2023/04/09 10:27:39;;;;;;;;;;;14.10;99.90;;;;;;5055337;28;20004;-38
2023/04/09 10:30:09;;;;;;;;;;;14.10;99.90;;;;;;5059361;28;20001;-38
2023/04/09 10:32:35;;;;;;;;;;;14.30;99.90;;;;;;5053161;28;20311;-37
2023/04/09 10:35:02;;;;;;;;;;;14.50;99.90;;;;;;5053119;28;20384;-38
2023/04/09 10:37:30;;;;;;;;;;;14.70;99.90;;;;;;5053191;28;19985;-38
2023/04/09 10:39:57;;;;;;;;;;;14.80;99.90;;;;;;5050560;28;20015;-38
2023/04/09 10:42:24;;;;;;;;;;;15.00;99.90;;;;;;5052530;28;19931;-39
2023/04/09 10:45:03;;;;;;;;;;;14.90;99.90;;;;;;5051748;28;19921;-40
2023/04/09 10:47:33;;;;;;;;;;;14.70;99.90;;;;;;5047196;28;20021;-39
2023/04/09 10:50:13;;;;;;;;;;;14.70;99.90;;;;;;5041454;28;20016;-39
2023/04/09 10:52:43;;;;;;;;;;;14.70;99.90;;;;;;5052067;28;20369;-39
2023/04/09 10:55:09;;;;;;;;;;;14.90;99.90;;;;;;5048630;28;19934;-41
2023/04/09 10:57:36;;;;;;;;;;;15.00;99.90;;;;;;5051867;28;20082;-38
2023/04/09 11:00:03;;;;;;;;;;;15.00;99.90;;;;;;5044522;28;19938;-38
2023/04/09 11:02:45;;;;;;;;;;;15.00;99.90;;;;;;5052136;28;19944;-38
2023/04/09 11:05:16;;;;;;;;;;;15.10;99.90;;;;;;5058050;28;19957;-38
2023/04/09 11:07:44;;;;;;;;;;;15.20;99.90;;;;;;5047886;28;20341;-38
2023/04/09 11:10:11;;;;;;;;;;;15.20;99.90;;;;;;5049206;28;19933;-38
2023/04/09 11:12:37;;;;;;;;;;;15.20;99.90;;;;;;5051177;28;19937;-39
2023/04/09 11:15:04;;;;;;;;;;;15.40;99.90;;;;;;5057607;28;19931;-39
2023/04/09 11:17:31;;;;;;;;;;;15.50;99.90;;;;;;5052101;28;19960;-39
2023/04/09 11:19:58;;;;;;;;;;;15.50;99.90;;;;;;5049123;28;20003;-39
2023/04/09 11:22:24;;;;;;;;;;;15.70;99.90;;;;;;5051486;28;19933;-39
2023/04/09 11:24:52;;;;;;;;;;;15.80;99.90;;;;;;5052339;28;20523;-38
2023/04/09 11:30:41;;;;;;;;;;;15.70;99.90;;;;;;5052695;28;19930;-38
2023/04/09 11:33:08;;;;;;;;;;;15.80;99.90;;;;;;5052847;28;19939;-38
2023/04/09 11:35:35;;;;;;;;;;;16.00;99.90;;;;;;5055308;28;19939;-38
2023/04/09 11:38:05;;;;;;;;;;;16.20;99.90;;;;;;5074097;28;20350;-38
2023/04/09 11:40:33;;;;;;;;;;;16.40;99.90;;;;;;5052388;28;20012;-39
2023/04/09 11:43:01;;;;;;;;;;;16.50;99.90;;;;;;5050339;28;20031;-38
2023/04/09 11:45:29;;;;;;;;;;;16.50;97.80;;;;;;5048802;28;19953;-37
2023/04/09 11:47:55;;;;;;;;;;;16.40;98.90;;;;;;5050979;28;20388;-37
2023/04/09 11:50:22;;;;;;;;;;;16.40;98.70;;;;;;5052894;28;20292;-38
2023/04/09 11:52:49;;;;;;;;;;;16.20;97.90;;;;;;5055743;28;19978;-38
2023/04/09 11:55:22;;;;;;;;;;;16.10;98.00;;;;;;5051397;28;19937;-38
2023/04/09 11:57:51;;;;;;;;;;;16.00;99.20;;;;;;5051327;28;20028;-38
2023/04/09 12:00:17;;;;;;;;;;;16.10;99.90;;;;;;5051547;28;20450;-39
2023/04/09 12:02:45;;;;;;;;;;;16.10;98.80;;;;;;5051994;28;20304;-39
2023/04/09 12:05:12;;;;;;;;;;;16.20;99.90;;;;;;5068878;28;19956;-37
2023/04/09 12:07:39;;;;;;;;;;;16.40;97.30;;;;;;5054628;28;19972;-38
2023/04/09 12:10:06;;;;;;;;;;;16.40;95.80;;;;;;5052011;28;19935;-39
2023/04/09 12:12:39;;;;;;;;;;;16.40;98.00;;;;;;5048190;28;19935;-38
2023/04/09 12:15:09;;;;;;;;;;;16.50;97.50;;;;;;5051801;28;20364;-37
2023/04/09 12:17:36;;;;;;;;;;;16.60;96.00;;;;;;5051569;28;20058;-38
2023/04/09 12:20:02;;;;;;;;;;;16.60;97.40;;;;;;5050635;28;20379;-38
2023/04/09 12:22:29;;;;;;;;;;;16.50;97.10;;;;;;5050840;28;19986;-38
2023/04/09 12:24:56;;;;;;;;;;;16.50;98.40;;;;;;5051617;28;20371;-38
2023/04/09 12:27:22;;;;;;;;;;;16.60;98.40;;;;;;5055729;28;19986;-38
2023/04/09 12:29:49;;;;;;;;;;;16.90;96.30;;;;;;5052812;28;20313;-38
2023/04/09 12:32:18;;;;;;;;;;;17.00;95.50;;;;;;5051555;28;20030;-39
2023/04/09 12:34:46;;;;;;;;;;;17.00;94.20;;;;;;5051964;28;19992;-37
2023/04/09 12:37:12;;;;;;;;;;;17.00;94.60;;;;;;5046149;28;20304;-38
2023/04/09 12:39:39;;;;;;;;;;;17.00;94.40;;;;;;5050729;28;19976;-38
2023/04/09 12:42:06;;;;;;;;;;;17.00;95.40;;;;;;5052188;28;19983;-40
2023/04/09 12:44:32;;;;;;;;;;;17.00;95.50;;;;;;5050619;28;19937;-37
2023/04/09 12:46:59;;;;;;;;;;;17.00;92.60;;;;;;5051372;28;20014;-38
2023/04/09 12:49:28;;;;;;;;;;;17.00;92.80;;;;;;5048531;28;19945;-37
2023/04/09 12:51:54;;;;;;;;;;;17.10;93.50;;;;;;5060076;28;19938;-37
2023/04/09 12:54:21;;;;;;;;;;;17.20;93.70;;;;;;5051241;28;19985;-38
2023/04/09 12:56:48;;;;;;;;;;;17.20;91.80;;;;;;5047002;28;20354;-40
2023/04/09 12:59:15;;;;;;;;;;;17.10;94.10;;;;;;5050770;28;20311;-39
2023/04/09 13:01:42;;;;;;;;;;;17.20;92.70;;;;;;5034416;28;20029;-37
2023/04/09 13:04:08;;;;;;;;;;;17.40;90.70;;;;;;5037784;28;20038;-38
2023/04/09 13:06:36;;;;;;;;;;;17.40;90.30;;;;;;5051162;28;19992;-38
2023/04/09 13:09:03;;;;;;;;;;;17.40;92.20;;;;;;5050781;28;20033;-38
2023/04/09 13:11:30;;;;;;;;;;;17.60;91.40;;;;;;5050618;28;20308;-38
2023/04/09 13:13:56;;;;;;;;;;;17.70;92.30;;;;;;5049401;28;20370;-38
2023/04/09 13:16:23;;;;;;;;;;;17.80;91.00;;;;;;5050657;28;20032;-38
2023/04/09 13:18:50;;;;;;;;;;;17.90;92.10;;;;;;5050322;28;20012;-38
2023/04/09 13:21:17;;;;;;;;;;;18.10;91.20;;;;;;5049711;28;19993;-38
2023/04/09 13:23:45;;;;;;;;;;;18.10;89.50;;;;;;5045756;28;19939;-39
2023/04/09 13:26:12;;;;;;;;;;;18.10;87.00;;;;;;5050379;28;20103;-38
2023/04/09 13:28:38;;;;;;;;;;;18.10;88.40;;;;;;5050410;28;19970;-37
2023/04/09 13:31:05;;;;;;;;;;;17.90;85.20;;;;;;5051528;28;19965;-38
2023/04/09 13:33:32;;;;;;;;;;;17.70;86.50;;;;;;5049514;28;20368;-38
2023/04/09 13:35:59;;;;;;;;;;;17.50;88.30;;;;;;5047738;28;19948;-37
2023/04/09 13:38:25;;;;;;;;;;;17.50;87.90;;;;;;5041939;28;20033;-37
2023/04/09 13:40:53;;;;;;;;;;;17.60;88.40;;;;;;5048773;28;19962;-37
2023/04/09 13:43:20;;;;;;;;;;;17.60;82.80;;;;;;5048354;28;20335;-39
2023/04/09 13:45:48;;;;;;;;;;;17.50;82.80;;;;;;5047613;28;19953;-40
2023/04/09 13:48:15;;;;;;;;;;;17.60;86.80;;;;;;5047350;28;19942;-38
2023/04/09 13:50:41;;;;;;;;;;;17.70;87.90;;;;;;5049092;28;19984;-39
2023/04/09 13:53:08;;;;;;;;;;;17.80;85.50;;;;;;5050868;28;19933;-39
2023/04/09 13:55:35;;;;;;;;;;;18.00;88.00;;;;;;5053664;28;19986;-38
2023/04/09 13:58:03;;;;;;;;;;;17.90;81.40;;;;;;5054467;28;19972;-39
2023/04/09 14:00:30;;;;;;;;;;;18.00;81.90;;;;;;5054298;28;19937;-40
2023/04/09 14:02:56;;;;;;;;;;;18.00;78.30;;;;;;5047418;28;20022;-38
2023/04/09 14:05:23;;;;;;;;;;;18.10;82.90;;;;;;5047674;28;19942;-38
2023/04/09 14:07:50;;;;;;;;;;;18.20;76.80;;;;;;5053843;28;19933;-38
2023/04/09 14:10:16;;;;;;;;;;;18.20;77.90;;;;;;5053700;28;19939;-38
2023/04/09 14:12:43;;;;;;;;;;;18.30;76.50;;;;;;5051803;28;19935;-37
2023/04/09 14:15:11;;;;;;;;;;;18.20;78.10;;;;;;5051281;28;20028;-40
2023/04/09 14:17:38;;;;;;;;;;;18.00;78.20;;;;;;5038505;28;20005;-38
2023/04/09 14:20:05;;;;;;;;;;;17.80;78.80;;;;;;5051544;28;20437;-37
2023/04/09 14:22:31;;;;;;;;;;;17.80;81.30;;;;;;5048115;28;20402;-38
2023/04/09 14:24:58;;;;;;;;;;;17.80;84.70;;;;;;5054632;28;20374;-39
2023/04/09 14:27:25;;;;;;;;;;;17.90;84.80;;;;;;5054121;28;20064;-39